Time;durP1;ratioP1;P1;durP2;ratioP2;P2;SDS_P1;SDS_P2;PMS_P1;PMS_P2;Temp;Humidity;BMP_temperature;BMP_pressure;BME280_temperature;BME280_humidity;BME280_pressure;Samples;Min_cycle;Max_cycle;Signal;HPM_P1;HPM_P2
2023/12/27 00:02:17;;;;;;;30.90;12.02;;;;;;;4.96;100.00;102038.66;5274115;28;20524;-73
2023/12/27 00:04:47;;;;;;;27.90;12.88;;;;;;;4.94;100.00;102041.41;5270599;28;20030;-73
2023/12/27 00:07:18;;;;;;;37.38;12.50;;;;;;;4.93;100.00;102035.25;5272532;28;20110;-73
2023/12/27 00:09:48;;;;;;;33.25;12.52;;;;;;;4.93;100.00;102037.91;5269998;28;20499;-73
2023/12/27 00:12:19;;;;;;;34.78;13.35;;;;;;;4.99;100.00;102038.47;5270405;28;20024;-73
2023/12/27 00:14:49;;;;;;;31.08;11.20;;;;;;;5.02;100.00;102048.88;5270689;28;20027;-73
2023/12/27 00:17:19;;;;;;;42.30;14.88;;;;;;;5.03;100.00;102055.94;5273584;28;20028;-73
2023/12/27 00:19:51;;;;;;;29.00;11.77;;;;;;;5.00;100.00;102050.78;5268558;28;20035;-73
2023/12/27 00:22:21;;;;;;;29.52;11.48;;;;;;;4.95;100.00;102043.13;5272512;28;20038;-73
2023/12/27 00:24:53;;;;;;;20.98;10.93;;;;;;;4.91;100.00;102031.81;5267876;28;20028;-73
2023/12/27 00:27:23;;;;;;;27.00;11.73;;;;;;;4.88;100.00;102032.03;5269715;28;20027;-73
2023/12/27 00:29:54;;;;;;;30.80;11.77;;;;;;;4.79;100.00;102026.47;5267978;28;20035;-73
2023/12/27 00:32:24;;;;;;;40.03;14.60;;;;;;;4.75;100.00;102025.81;5270327;28;20129;-73
2023/12/27 00:34:55;;;;;;;40.63;13.55;;;;;;;4.76;100.00;102027.50;5271398;28;20069;-73
2023/12/27 00:37:26;;;;;;;36.70;13.18;;;;;;;4.78;100.00;102017.66;5271580;28;20030;-73
2023/12/27 00:39:56;;;;;;;29.42;12.73;;;;;;;4.80;100.00;102013.06;5267986;28;20114;-74
2023/12/27 00:42:26;;;;;;;19.45;10.02;;;;;;;4.76;100.00;102000.91;5272270;28;20053;-73
2023/12/27 00:44:57;;;;;;;24.73;10.50;;;;;;;4.83;100.00;101999.59;5269383;28;20089;-74
2023/12/27 00:47:27;;;;;;;28.60;10.13;;;;;;;4.78;100.00;101999.03;5269836;28;20027;-73
2023/12/27 00:49:58;;;;;;;30.30;11.10;;;;;;;4.68;100.00;102000.59;5268891;28;20024;-73
2023/12/27 00:52:28;;;;;;;26.13;10.75;;;;;;;4.73;100.00;102000.28;5270712;28;20036;-73
2023/12/27 00:54:59;;;;;;;22.05;11.45;;;;;;;4.75;100.00;102009.84;5272003;28;20381;-73
2023/12/27 00:57:30;;;;;;;27.10;11.55;;;;;;;4.74;100.00;102010.81;5269274;28;20023;-73
2023/12/27 01:00:00;;;;;;;23.23;11.45;;;;;;;4.72;100.00;102007.41;5269856;28;20035;-73
2023/12/27 01:02:31;;;;;;;29.23;12.35;;;;;;;4.77;100.00;102005.31;5270854;28;20097;-74
2023/12/27 01:05:02;;;;;;;33.15;13.40;;;;;;;4.83;100.00;102006.72;5271773;28;20493;-73
2023/12/27 01:07:33;;;;;;;23.85;10.88;;;;;;;4.87;100.00;102002.88;5269439;28;20032;-74
2023/12/27 01:10:05;;;;;;;25.35;11.75;;;;;;;4.87;100.00;102003.75;5269958;28;20027;-73
2023/12/27 01:12:36;;;;;;;30.15;12.02;;;;;;;4.88;100.00;102000.13;5270240;28;20073;-73
2023/12/27 01:15:06;;;;;;;33.90;12.52;;;;;;;4.93;100.00;101997.16;5269505;28;20562;-73
2023/12/27 01:17:37;;;;;;;30.63;12.77;;;;;;;4.99;100.00;101999.41;5269838;28;20024;-73
2023/12/27 01:20:08;;;;;;;28.95;12.13;;;;;;;5.03;100.00;102006.25;5270617;28;20038;-73
2023/12/27 01:22:38;;;;;;;33.80;12.00;;;;;;;5.07;100.00;101993.56;5270100;28;20024;-73
2023/12/27 01:25:09;;;;;;;28.27;11.90;;;;;;;5.10;100.00;102002.19;5272816;28;20034;-73
2023/12/27 01:27:39;;;;;;;29.58;10.75;;;;;;;5.14;100.00;102001.06;5268358;28;20474;-73
2023/12/27 01:30:10;;;;;;;32.70;11.18;;;;;;;5.20;100.00;101991.81;5266063;28;20062;-73
2023/12/27 01:32:41;;;;;;;38.70;12.68;;;;;;;5.27;100.00;101984.25;5267099;28;20016;-73
2023/12/27 01:35:11;;;;;;;38.40;11.88;;;;;;;5.33;100.00;101974.06;5273005;28;20031;-73
2023/12/27 01:37:43;;;;;;;36.28;11.02;;;;;;;5.37;100.00;101980.88;5269969;28;20129;-73
2023/12/27 01:40:15;;;;;;;27.88;9.45;;;;;;;5.42;100.00;101978.75;5270954;28;20028;-73
2023/12/27 01:42:45;;;;;;;33.97;10.90;;;;;;;5.49;100.00;101981.00;5266118;28;20024;-73
2023/12/27 01:45:16;;;;;;;32.78;10.90;;;;;;;5.53;100.00;101983.34;5267139;28;20426;-73
2023/12/27 01:47:47;;;;;;;37.88;11.05;;;;;;;5.59;100.00;101974.91;5272278;28;20378;-73
2023/12/27 01:50:19;;;;;;;34.67;10.75;;;;;;;5.65;100.00;101969.16;5267011;28;20389;-73
2023/12/27 01:52:50;;;;;;;37.28;12.68;;;;;;;5.71;100.00;101967.88;5276348;28;20028;-73
2023/12/27 01:55:21;;;;;;;30.33;10.30;;;;;;;5.74;100.00;101972.16;5271671;28;20035;-73
2023/12/27 01:57:51;;;;;;;35.60;10.25;;;;;;;5.79;100.00;101967.34;5271095;28;20023;-73
2023/12/27 02:00:22;;;;;;;35.60;9.63;;;;;;;5.85;100.00;101969.56;5278655;28;20055;-73
2023/12/27 02:02:53;;;;;;;36.95;10.27;;;;;;;5.87;100.00;101965.88;5278629;28;20038;-73
2023/12/27 02:05:24;;;;;;;32.78;10.63;;;;;;;5.86;100.00;101965.94;5271744;28;20098;-73
2023/12/27 02:07:55;;;;;;;31.95;10.38;;;;;;;5.89;100.00;101957.75;5283132;28;20037;-73
2023/12/27 02:10:27;;;;;;;32.20;10.50;;;;;;;5.93;100.00;101959.28;5281370;28;20028;-73
2023/12/27 02:13:04;;;;;;;34.88;10.55;;;;;;;6.07;100.00;101945.78;5280478;28;20018;-73
2023/12/27 02:15:35;;;;;;;45.10;10.88;;;;;;;6.12;100.00;101942.81;5265240;28;20020;-73
2023/12/27 02:18:07;;;;;;;34.20;10.20;;;;;;;6.17;100.00;101943.31;5277006;28;20031;-73
2023/12/27 02:20:39;;;;;;;29.10;10.48;;;;;;;6.18;100.00;101942.38;5269845;28;20052;-73
2023/12/27 02:23:13;;;;;;;35.50;10.57;;;;;;;6.19;100.00;101942.25;5275132;28;20024;-72
2023/12/27 02:25:45;;;;;;;34.20;10.32;;;;;;;6.27;100.00;101930.19;5274567;28;20047;-72
2023/12/27 02:28:16;;;;;;;32.97;10.38;;;;;;;6.26;100.00;101929.34;5280878;28;20030;-72
2023/12/27 02:30:46;;;;;;;36.78;12.38;;;;;;;6.37;100.00;101929.41;5276920;28;20385;-73
2023/12/27 02:33:17;;;;;;;28.23;10.23;;;;;;;6.40;100.00;101931.84;5275348;28;20050;-73
2023/12/27 02:35:47;;;;;;;30.65;10.50;;;;;;;6.45;100.00;101931.50;5272837;28;20024;-73
2023/12/27 02:38:18;;;;;;;47.30;11.15;;;;;;;6.49;100.00;101930.31;5271638;28;20023;-73
2023/12/27 02:40:48;;;;;;;42.80;11.32;;;;;;;6.55;100.00;101934.34;5277664;28;20083;-73
2023/12/27 02:43:19;;;;;;;32.10;10.20;;;;;;;6.59;100.00;101930.50;5276091;28;20032;-73
2023/12/27 02:45:49;;;;;;;27.85;10.27;;;;;;;6.61;100.00;101916.06;5271954;28;20638;-73
2023/12/27 02:48:20;;;;;;;35.03;11.32;;;;;;;6.65;100.00;101916.69;5277502;28;20110;-73
2023/12/27 02:50:51;;;;;;;36.78;11.45;;;;;;;6.67;100.00;101910.28;5274825;28;20024;-73
2023/12/27 02:53:23;;;;;;;35.03;11.20;;;;;;;6.69;100.00;101904.84;5274443;28;20091;-72
2023/12/27 02:55:53;;;;;;;38.35;12.95;;;;;;;6.73;100.00;101898.31;5275558;28;20024;-73
2023/12/27 02:58:32;;;;;;;40.67;10.55;;;;;;;6.77;100.00;101894.44;5266678;28;20043;-73
2023/12/27 03:01:10;;;;;;;33.42;11.40;;;;;;;6.82;100.00;101892.25;5284196;28;20039;-73
2023/12/27 03:03:41;;;;;;;31.98;9.73;;;;;;;6.84;100.00;101890.34;5276584;28;20030;-73
2023/12/27 03:06:11;;;;;;;25.35;10.07;;;;;;;6.85;100.00;101878.72;5271000;28;20019;-73
2023/12/27 03:08:52;;;;;;;33.58;11.60;;;;;;;6.89;100.00;101874.84;5262461;28;20020;-73
2023/12/27 03:11:22;;;;;;;33.47;10.60;;;;;;;6.92;100.00;101857.75;5266626;28;20112;-73
2023/12/27 03:13:53;;;;;;;32.70;10.98;;;;;;;6.91;100.00;101854.22;5271876;28;20385;-72
2023/12/27 03:16:23;;;;;;;32.33;10.32;;;;;;;6.93;100.00;101856.78;5272795;28;20536;-73
2023/12/27 03:19:01;;;;;;;30.85;10.45;;;;;;;6.93;100.00;101848.78;5272510;28;20024;-73
2023/12/27 03:21:31;;;;;;;29.63;9.82;;;;;;;6.91;100.00;101840.88;5273580;28;20401;-73
2023/12/27 03:24:02;;;;;;;31.73;9.05;;;;;;;6.96;100.00;101838.72;5279060;28;20477;-73
2023/12/27 03:26:33;;;;;;;31.88;10.60;;;;;;;7.00;100.00;101834.84;5280226;28;20027;-73
2023/12/27 03:29:03;;;;;;;41.10;10.15;;;;;;;7.04;100.00;101827.47;5276398;28;20024;-73
2023/12/27 03:31:34;;;;;;;44.13;11.90;;;;;;;7.03;100.00;101824.88;5273215;28;20482;-73
2023/12/27 03:34:04;;;;;;;41.00;10.00;;;;;;;7.06;100.00;101827.31;5277207;28;20020;-73
2023/12/27 03:36:35;;;;;;;30.77;9.77;;;;;;;7.07;100.00;101826.34;5273848;28;20028;-73
2023/12/27 03:39:06;;;;;;;35.80;10.90;;;;;;;7.09;100.00;101819.94;5277363;28;20106;-72
2023/12/27 03:41:37;;;;;;;29.10;10.82;;;;;;;7.10;100.00;101813.63;5271855;28;20145;-74
2023/12/27 03:44:07;;;;;;;35.50;11.40;;;;;;;7.12;100.00;101816.16;5272826;28;20024;-73
2023/12/27 03:46:38;;;;;;;38.67;10.65;;;;;;;7.13;100.00;101804.53;5271982;28;20028;-73
2023/12/27 03:49:08;;;;;;;29.90;10.23;;;;;;;7.14;100.00;101798.25;5273780;28;20111;-74
2023/12/27 03:51:38;;;;;;;29.50;10.55;;;;;;;7.14;100.00;101795.56;5272409;28;20675;-74
2023/12/27 03:54:09;;;;;;;33.10;10.55;;;;;;;7.17;100.00;101780.16;5270078;28;20038;-74
2023/12/27 03:56:44;;;;;;;32.85;10.40;;;;;;;7.20;100.00;101782.59;5274166;28;20043;-74
2023/12/27 03:59:15;;;;;;;25.17;9.35;;;;;;;7.23;100.00;101778.84;5275889;28;20361;-75
2023/12/27 04:01:46;;;;;;;45.88;11.45;;;;;;;7.24;100.00;101777.84;5274457;28;20034;-74
2023/12/27 04:04:18;;;;;;;31.30;10.85;;;;;;;7.27;100.00;101773.09;5254048;28;20019;-75
2023/12/27 04:06:49;;;;;;;34.63;10.75;;;;;;;7.31;100.00;101779.06;5270786;28;20035;-75
2023/12/27 04:09:19;;;;;;;49.63;12.50;;;;;;;7.29;100.00;101780.16;5271134;28;20023;-74
2023/12/27 04:11:50;;;;;;;33.03;11.75;;;;;;;7.31;100.00;101776.38;5266513;28;20428;-74
2023/12/27 04:14:20;;;;;;;44.85;13.63;;;;;;;7.29;100.00;101775.66;5274116;28;20027;-74
2023/12/27 04:16:51;;;;;;;41.08;12.43;;;;;;;7.36;100.00;101776.88;5271716;28;20024;-75
2023/12/27 04:19:21;;;;;;;32.92;11.57;;;;;;;7.36;100.00;101770.69;5267431;28;20529;-74
2023/12/27 04:21:52;;;;;;;40.08;12.27;;;;;;;7.37;100.00;101767.88;5265944;27;20038;-74
2023/12/27 04:24:22;;;;;;;35.67;12.73;;;;;;;7.43;100.00;101766.53;5275442;28;20023;-75
2023/12/27 04:26:53;;;;;;;50.90;13.68;;;;;;;7.41;100.00;101757.81;5275714;27;20062;-75
2023/12/27 04:29:23;;;;;;;32.70;12.40;;;;;;;7.45;100.00;101765.44;5273200;28;20019;-75
2023/12/27 04:31:54;;;;;;;39.30;13.13;;;;;;;7.44;100.00;101766.44;5269120;28;20469;-75
2023/12/27 04:34:25;;;;;;;42.58;12.95;;;;;;;7.47;100.00;101757.31;5267727;28;20019;-75
2023/12/27 04:36:55;;;;;;;42.85;12.93;;;;;;;7.53;100.00;101759.50;5279327;28;20035;-75
2023/12/27 04:39:26;;;;;;;46.90;14.63;;;;;;;7.52;100.00;101755.97;5268839;28;20028;-75
2023/12/27 04:41:56;;;;;;;36.17;12.30;;;;;;;7.58;100.00;101757.31;5273266;28;20075;-75
2023/12/27 04:44:27;;;;;;;43.25;15.38;;;;;;;7.61;100.00;101751.72;5270773;28;20107;-75
2023/12/27 04:46:57;;;;;;;40.15;12.60;;;;;;;7.61;100.00;101751.72;5273988;28;20046;-75
2023/12/27 04:49:28;;;;;;;36.25;12.45;;;;;;;7.62;100.00;101745.38;5268296;28;20641;-75
2023/12/27 04:52:09;;;;;;;41.13;11.60;;;;;;;7.62;100.00;101740.03;5275542;28;20385;-75
2023/12/27 04:54:39;;;;;;;53.78;13.38;;;;;;;7.60;100.00;101742.00;5275841;28;20489;-76
2023/12/27 04:57:10;;;;;;;43.72;13.60;;;;;;;7.63;100.00;101735.53;5274104;28;20103;-76
2023/12/27 04:59:40;;;;;;;35.70;12.85;;;;;;;7.70;100.00;101736.75;5269312;28;20031;-76
2023/12/27 05:02:10;;;;;;;41.42;12.57;;;;;;;7.72;100.00;101735.66;5269583;28;20015;-76
2023/12/27 05:04:41;;;;;;;34.55;12.30;;;;;;;7.80;100.00;101729.69;5274527;28;20032;-76
2023/12/27 05:07:11;;;;;;;41.88;13.73;;;;;;;7.84;100.00;101728.47;5275713;28;20102;-76
2023/12/27 05:09:42;;;;;;;32.10;12.07;;;;;;;7.89;100.00;101725.41;5275085;28;20797;-76
2023/12/27 05:12:12;;;;;;;33.53;13.43;;;;;;;7.94;100.00;101725.88;5275426;28;20024;-76
2023/12/27 05:14:43;;;;;;;44.08;13.65;;;;;;;7.98;100.00;101725.50;5272196;28;20027;-76
2023/12/27 05:17:14;;;;;;;39.00;12.85;;;;;;;7.99;100.00;101726.34;5273890;28;20098;-76
2023/12/27 05:19:44;;;;;;;37.50;13.20;;;;;;;8.04;100.00;101722.31;5272724;28;20028;-76
2023/12/27 05:22:16;;;;;;;37.33;13.35;;;;;;;8.10;100.00;101710.25;5276872;28;20524;-76
2023/12/27 05:24:47;;;;;;;41.75;12.55;;;;;;;8.12;100.00;101712.78;5270453;28;20024;-76
2023/12/27 05:27:17;;;;;;;40.38;12.35;;;;;;;8.11;100.00;101698.56;5276229;28;20019;-76
2023/12/27 05:29:48;;;;;;;44.33;13.20;;;;;;;8.16;100.00;101698.19;5272787;28;20020;-76
2023/12/27 05:32:18;;;;;;;30.40;12.50;;;;;;;8.17;100.00;101706.06;5271597;28;20027;-76
2023/12/27 05:34:49;;;;;;;37.30;13.13;;;;;;;8.15;100.00;101697.34;5275083;28;20473;-76
2023/12/27 05:37:20;;;;;;;34.63;13.27;;;;;;;8.15;100.00;101709.88;5267827;28;20055;-76
2023/12/27 05:39:51;;;;;;;44.58;13.48;;;;;;;8.17;100.00;101710.56;5266740;28;20032;-76
2023/12/27 05:42:21;;;;;;;41.78;13.70;;;;;;;8.20;100.00;101715.66;5272870;28;20069;-77
2023/12/27 05:44:52;;;;;;;41.50;13.73;;;;;;;8.23;100.00;101707.38;5271538;28;20439;-76
2023/12/27 05:47:23;;;;;;;42.03;13.48;;;;;;;8.26;100.00;101705.28;5274223;28;20028;-76
2023/12/27 05:49:53;;;;;;;44.75;13.57;;;;;;;8.31;100.00;101696.88;5272800;28;20035;-76
2023/12/27 05:52:24;;;;;;;33.75;13.10;;;;;;;8.31;100.00;101691.53;5275503;28;20015;-77
2023/12/27 05:54:54;;;;;;;34.70;13.00;;;;;;;8.32;100.00;101678.03;5274005;28;20535;-76
2023/12/27 05:57:25;;;;;;;33.28;12.52;;;;;;;8.40;100.00;101656.03;5271145;28;20034;-78
2023/12/27 05:59:55;;;;;;;34.95;12.00;;;;;;;8.40;100.00;101641.81;5271224;28;20034;-77
2023/12/27 06:02:26;;;;;;;34.60;12.52;;;;;;;8.40;100.00;101653.34;5272695;28;20019;-76
2023/12/27 06:04:56;;;;;;;41.55;13.48;;;;;;;8.42;100.00;101666.59;5280921;28;20030;-76
2023/12/27 06:07:28;;;;;;;28.95;10.23;;;;;;;8.44;100.00;101659.28;5274857;28;20464;-77
2023/12/27 06:09:58;;;;;;;33.50;11.27;;;;;;;8.53;100.00;101662.03;5272488;28;20032;-76
2023/12/27 06:12:29;;;;;;;28.65;11.25;;;;;;;8.65;100.00;101656.56;5270437;28;20016;-76
2023/12/27 06:15:00;;;;;;;27.50;10.07;;;;;;;8.64;100.00;101668.25;5273407;28;20092;-76
2023/12/27 06:17:30;;;;;;;26.13;10.13;;;;;;;8.69;100.00;101649.97;5278442;28;20020;-76
2023/12/27 06:20:01;;;;;;;25.23;9.13;;;;;;;8.80;100.00;101647.19;5274036;28;20527;-76
2023/12/27 06:22:32;;;;;;;23.08;9.35;;;;;;;8.73;100.00;101649.53;5275631;28;20039;-76
2023/12/27 06:25:03;;;;;;;20.38;9.13;;;;;;;8.81;100.00;101648.88;5275322;28;20495;-76
2023/12/27 06:27:34;;;;;;;24.05;9.07;;;;;;;8.84;100.00;101642.44;5280205;28;20050;-76
2023/12/27 06:30:05;;;;;;;28.05;10.38;;;;;;;8.91;100.00;101640.91;5282391;28;20015;-76
2023/12/27 06:32:36;;;;;;;25.08;10.05;;;;;;;8.93;100.00;101645.13;5276046;28;20022;-76
2023/12/27 06:35:06;;;;;;;32.10;11.00;;;;;;;8.93;100.00;101652.31;5282655;28;20094;-76
2023/12/27 06:37:37;;;;;;;25.30;8.32;;;;;;;8.99;100.00;101639.25;5274765;27;20026;-76
2023/12/27 06:40:08;;;;;;;29.33;10.35;;;;;;;9.06;100.00;101645.72;5269898;28;20532;-76
2023/12/27 06:42:39;;;;;;;22.17;8.93;;;;;;;9.06;100.00;101640.38;5268787;28;20116;-76
2023/12/27 06:45:10;;;;;;;18.23;8.50;;;;;;;9.08;100.00;101651.78;5273692;28;20055;-76
2023/12/27 06:47:41;;;;;;;15.07;8.38;;;;;;;9.10;100.00;101650.81;5270939;28;20441;-76
2023/12/27 06:50:12;;;;;;;16.17;7.57;;;;;;;9.17;100.00;101659.97;5265979;28;20503;-76
2023/12/27 06:52:42;;;;;;;17.65;7.68;;;;;;;9.26;100.00;101659.16;5275695;28;20024;-76
2023/12/27 06:55:13;;;;;;;14.63;6.65;;;;;;;9.30;100.00;101663.25;5270482;28;20072;-76
2023/12/27 06:57:44;;;;;;;17.30;6.78;;;;;;;9.40;100.00;101648.06;5265942;28;20107;-76
2023/12/27 07:00:15;;;;;;;15.43;5.90;;;;;;;9.38;100.00;101638.44;5278290;28;20678;-76
2023/12/27 07:02:45;;;;;;;15.73;5.43;;;;;;;9.49;100.00;101628.47;5276661;28;20055;-76
2023/12/27 07:05:16;;;;;;;11.52;5.25;;;;;;;9.51;100.00;101620.28;5276288;28;20012;-75
2023/12/27 07:07:47;;;;;;;9.48;4.78;;;;;;;9.58;100.00;101608.00;5275618;28;20448;-75
2023/12/27 07:10:17;;;;;;;9.57;4.35;;;;;;;9.60;100.00;101596.19;5275372;28;20022;-76
2023/12/27 07:12:48;;;;;;;8.68;3.97;;;;;;;9.70;100.00;101595.34;5275214;28;20078;-75
2023/12/27 07:15:18;;;;;;;8.02;3.97;;;;;;;9.81;100.00;101593.34;5275934;28;20041;-75
2023/12/27 07:17:49;;;;;;;4.68;3.08;;;;;;;9.79;100.00;101589.97;5273652;28;20027;-75
2023/12/27 07:20:19;;;;;;;5.80;3.25;;;;;;;9.85;100.00;101588.56;5264304;28;20019;-76
2023/12/27 07:22:50;;;;;;;5.65;3.13;;;;;;;9.82;100.00;101591.50;5276828;28;20054;-76
2023/12/27 07:25:21;;;;;;;5.35;3.08;;;;;;;9.89;100.00;101594.44;5274063;27;20077;-76
2023/12/27 07:27:51;;;;;;;6.80;2.53;;;;;;;9.78;100.00;101587.41;5275536;28;20113;-76
2023/12/27 07:30:22;;;;;;;4.88;2.53;;;;;;;9.78;100.00;101590.94;5279651;28;20028;-76
2023/12/27 07:32:52;;;;;;;5.53;2.88;;;;;;;9.85;100.00;101605.47;5272243;28;20024;-76
2023/12/27 07:35:24;;;;;;;6.95;2.90;;;;;;;9.86;100.00;101601.78;5279196;28;20202;-76
2023/12/27 07:37:54;;;;;;;5.15;2.63;;;;;;;9.76;100.00;101600.97;5273983;28;20024;-76
2023/12/27 07:40:25;;;;;;;7.90;2.65;;;;;;;9.89;100.00;101587.28;5274384;28;20115;-76
2023/12/27 07:42:55;;;;;;;3.85;2.13;;;;;;;9.81;100.00;101584.47;5274619;28;20026;-76
2023/12/27 07:45:26;;;;;;;2.80;2.05;;;;;;;9.92;100.00;101588.81;5276370;28;20468;-76
2023/12/27 07:47:56;;;;;;;3.60;1.90;;;;;;;9.92;100.00;101586.13;5272189;28;20024;-76
2023/12/27 07:50:27;;;;;;;2.20;1.70;;;;;;;9.86;100.00;101585.72;5277696;28;20103;-76
2023/12/27 07:52:57;;;;;;;4.30;1.85;;;;;;;9.94;100.00;101601.09;5273151;28;20038;-76
2023/12/27 07:55:28;;;;;;;4.05;1.80;;;;;;;9.90;100.00;101590.81;5276850;28;20016;-76
2023/12/27 07:57:59;;;;;;;3.50;1.70;;;;;;;9.86;100.00;101595.59;5263722;28;20027;-76
2023/12/27 08:00:30;;;;;;;5.18;1.55;;;;;;;9.94;100.00;101592.19;5273675;28;20107;-76
2023/12/27 08:03:04;;;;;;;2.67;1.52;;;;;;;9.88;100.00;101585.56;5275907;28;20028;-76
2023/12/27 08:05:35;;;;;;;2.53;1.10;;;;;;;9.86;100.00;101575.00;5274043;27;20052;-76
2023/12/27 08:08:06;;;;;;;1.77;1.20;;;;;;;9.90;100.00;101574.72;5271363;28;20028;-76
2023/12/27 08:10:36;;;;;;;4.60;1.30;;;;;;;10.00;100.00;101573.72;5272207;28;20020;-76
2023/12/27 08:13:07;;;;;;;3.53;1.33;;;;;;;10.03;100.00;101572.56;5274219;28;20046;-76
2023/12/27 08:15:40;;;;;;;5.30;1.20;;;;;;;9.99;100.00;101577.38;5271142;28;20022;-76
2023/12/27 08:18:10;;;;;;;10.50;3.40;;;;;;;10.17;100.00;101573.94;5272393;28;20455;-76
2023/12/27 08:20:41;;;;;;;2.97;1.20;;;;;;;10.11;100.00;101570.84;5273434;28;20020;-76
2023/12/27 08:23:13;;;;;;;1.83;0.95;;;;;;;10.19;100.00;101569.25;5276321;28;20078;-76
2023/12/27 08:25:45;;;;;;;1.58;1.20;;;;;;;10.11;100.00;101576.22;5268685;28;20020;-76
2023/12/27 08:28:16;;;;;;;2.33;1.27;;;;;;;10.20;100.00;101576.34;5273256;28;20039;-76
2023/12/27 08:30:47;;;;;;;6.78;1.40;;;;;;;10.19;100.00;101569.25;5273613;28;20085;-76
2023/12/27 08:33:17;;;;;;;2.97;1.30;;;;;;;10.22;100.00;101572.50;5271508;28;20016;-76
2023/12/27 08:35:47;;;;;;;3.03;1.33;;;;;;;10.18;100.00;101563.06;5274006;28;20585;-76
2023/12/27 08:38:20;;;;;;;2.20;1.20;;;;;;;10.14;100.00;101561.69;5281708;28;20024;-76
2023/12/27 08:40:50;;;;;;;6.05;1.40;;;;;;;10.06;100.00;101549.00;5268129;28;20477;-76
2023/12/27 08:43:21;;;;;;;2.03;1.15;;;;;;;10.07;100.00;101533.75;5275575;28;20034;-76
2023/12/27 08:45:52;;;;;;;9.02;1.42;;;;;;;10.20;100.00;101555.72;5274061;28;21197;-76
2023/12/27 08:48:23;;;;;;;3.92;1.55;;;;;;;10.23;100.00;101546.53;5270634;28;20396;-76
2023/12/27 08:50:53;;;;;;;4.10;1.60;;;;;;;10.29;100.00;101559.38;5274549;28;20930;-76
2023/12/27 08:53:24;;;;;;;6.00;2.00;;;;;;;10.39;100.00;101565.53;5273665;28;20439;-76
2023/12/27 08:55:55;;;;;;;5.47;1.33;;;;;;;10.37;100.00;101568.38;5273079;28;20016;-76
2023/12/27 08:58:25;;;;;;;3.75;1.70;;;;;;;10.41;100.00;101560.06;5266164;28;20016;-76
2023/12/27 09:00:58;;;;;;;3.25;1.50;;;;;;;10.31;100.00;101557.41;5275172;28;20034;-76
2023/12/27 09:03:29;;;;;;;2.88;1.42;;;;;;;10.45;100.00;101548.03;5272370;28;20031;-76
2023/12/27 09:05:59;;;;;;;3.80;1.75;;;;;;;10.47;100.00;101541.53;5270973;28;20024;-76
2023/12/27 09:08:30;;;;;;;2.63;1.58;;;;;;;10.47;100.00;101543.34;5270914;28;20027;-76
2023/12/27 09:11:00;;;;;;;7.80;1.70;;;;;;;10.43;100.00;101545.47;5268102;28;20019;-76
2023/12/27 09:13:31;;;;;;;6.18;1.80;;;;;;;10.44;100.00;101546.31;5271313;28;20028;-76
2023/12/27 09:16:03;;;;;;;7.80;2.25;;;;;;;10.48;100.00;101553.94;5272661;28;20533;-76
2023/12/27 09:18:34;;;;;;;2.65;1.83;;;;;;;10.48;100.00;101542.38;5267765;28;20032;-76
2023/12/27 09:21:06;;;;;;;5.70;1.98;;;;;;;10.40;100.00;101535.06;5270717;28;20019;-76
2023/12/27 09:23:36;;;;;;;5.00;1.98;;;;;;;10.50;100.00;101530.50;5269685;28;20032;-76
2023/12/27 09:26:12;;;;;;;3.88;2.17;;;;;;;10.52;100.00;101536.56;5276681;28;20027;-76
2023/12/27 09:28:43;;;;;;;8.55;2.15;;;;;;;10.49;100.00;101538.69;5269486;28;20107;-76
2023/12/27 09:31:13;;;;;;;6.18;2.03;;;;;;;10.50;100.00;101524.28;5272481;28;20147;-76
2023/12/27 09:33:45;;;;;;;11.05;1.98;;;;;;;10.38;100.00;101523.63;5272603;28;20024;-76
2023/12/27 09:36:20;;;;;;;6.80;2.35;;;;;;;10.57;100.00;101520.84;5268316;28;20028;-76
2023/12/27 09:38:51;;;;;;;4.75;2.08;;;;;;;10.61;100.00;101524.94;5271753;28;20059;-76
2023/12/27 09:41:21;;;;;;;10.82;2.17;;;;;;;10.46;100.00;101523.75;5267626;28;20063;-76
2023/12/27 09:43:53;;;;;;;8.95;2.33;;;;;;;10.51;100.00;101523.28;5270381;28;20409;-76
2023/12/27 09:46:26;;;;;;;8.02;2.78;;;;;;;10.52;100.00;101528.50;5272254;27;20640;-76
2023/12/27 09:48:57;;;;;;;8.00;2.60;;;;;;;10.62;100.00;101534.66;5268781;28;20034;-76
2023/12/27 09:51:29;;;;;;;6.28;2.65;;;;;;;10.57;100.00;101539.63;5269406;28;20028;-76
2023/12/27 09:54:00;;;;;;;5.05;2.45;;;;;;;10.54;100.00;101541.75;5268656;28;20384;-76
2023/12/27 09:56:31;;;;;;;7.95;2.95;;;;;;;10.47;100.00;101540.69;5267229;28;20035;-76
2023/12/27 09:59:07;;;;;;;5.63;2.72;;;;;;;10.54;100.00;101537.25;5271766;28;20431;-76
2023/12/27 10:01:40;;;;;;;11.63;2.85;;;;;;;10.59;100.00;101534.97;5268138;28;20078;-76
2023/12/27 10:04:30;;;;;;;12.63;3.03;;;;;;;10.44;100.00;101525.75;5272408;28;20095;-76
2023/12/27 10:07:03;;;;;;;5.13;2.38;;;;;;;10.57;100.00;101531.59;5270742;28;20030;-76
2023/12/27 10:09:34;;;;;;;7.70;3.38;;;;;;;10.56;100.00;101535.25;5268924;28;20025;-76
2023/12/27 10:12:07;;;;;;;8.05;3.60;;;;;;;10.53;100.00;101521.28;5272719;28;20016;-76
2023/12/27 10:14:40;;;;;;;6.78;3.03;;;;;;;10.47;100.00;101509.31;5268333;28;20051;-76
2023/12/27 10:17:10;;;;;;;7.10;3.90;;;;;;;10.62;100.00;101513.19;5273487;28;20622;-76
2023/12/27 10:19:44;;;;;;;13.18;4.28;;;;;;;10.64;100.00;101496.94;5265488;28;20034;-76
2023/12/27 10:22:15;;;;;;;9.05;3.38;;;;;;;10.58;100.00;101503.75;5272174;28;20055;-76
2023/12/27 10:24:46;;;;;;;5.30;3.15;;;;;;;10.65;100.00;101489.75;5268406;28;20032;-76
2023/12/27 10:27:17;;;;;;;5.53;2.92;;;;;;;10.57;100.00;101485.97;5267293;28;20053;-76
2023/12/27 10:29:47;;;;;;;8.88;3.72;;;;;;;10.82;100.00;101480.88;5267180;28;20031;-76
2023/12/27 10:32:18;;;;;;;10.70;3.90;;;;;;;10.67;100.00;101493.97;5269196;28;20022;-76
2023/12/27 10:34:49;;;;;;;16.80;4.28;;;;;;;10.68;100.00;101486.75;5268494;28;20716;-76
2023/12/27 10:37:20;;;;;;;12.88;3.42;;;;;;;10.61;100.00;101482.00;5268405;28;20020;-76
2023/12/27 10:39:54;;;;;;;9.35;4.22;;;;;;;10.68;100.00;101471.50;5269576;28;20039;-76
2023/12/27 10:42:28;;;;;;;14.18;4.43;;;;;;;10.74;100.00;101468.19;5271982;28;20374;-76
2023/12/27 10:44:58;;;;;;;10.40;3.50;;;;;;;10.74;100.00;101483.47;5268580;28;20030;-76
2023/12/27 10:47:31;;;;;;;7.63;3.22;;;;;;;10.87;100.00;101473.19;5271039;28;20396;-76
2023/12/27 10:50:05;;;;;;;10.80;3.67;;;;;;;10.89;100.00;101476.56;5270368;28;20033;-76
2023/12/27 10:52:39;;;;;;;13.00;3.35;;;;;;;10.79;100.00;101457.88;5269012;28;20103;-76
2023/12/27 10:55:18;;;;;;;9.85;3.47;;;;;;;10.88;100.00;101453.41;5273256;28;20023;-76
2023/12/27 10:57:54;;;;;;;14.15;3.75;;;;;;;10.86;100.00;101450.03;5265703;28;20028;-76
2023/12/27 11:00:25;;;;;;;13.95;3.88;;;;;;;10.75;100.00;101445.75;5266478;28;20381;-76
2023/12/27 11:02:57;;;;;;;9.02;3.15;;;;;;;10.67;100.00;101447.50;5274495;28;20085;-76
2023/12/27 11:05:30;;;;;;;14.45;3.30;;;;;;;10.78;100.00;101458.00;5273052;28;20054;-76
2023/12/27 11:08:01;;;;;;;9.20;3.42;;;;;;;10.76;100.00;101460.00;5272956;28;20020;-76
2023/12/27 11:10:35;;;;;;;16.38;4.00;;;;;;;10.67;100.00;101440.28;5269010;28;20020;-76
2023/12/27 11:13:09;;;;;;;8.30;3.35;;;;;;;10.73;100.00;101417.38;5273037;28;20025;-76
2023/12/27 11:15:44;;;;;;;5.40;3.55;;;;;;;10.91;100.00;101434.31;5271464;28;20020;-76
2023/12/27 11:18:17;;;;;;;13.73;3.78;;;;;;;10.89;100.00;101426.44;5272756;28;20020;-76
2023/12/27 11:20:49;;;;;;;11.32;3.42;;;;;;;10.85;100.00;101422.38;5271373;28;20119;-76
2023/12/27 11:23:20;;;;;;;12.65;3.42;;;;;;;10.87;100.00;101422.19;5270102;28;20019;-76
2023/12/27 11:25:54;;;;;;;13.88;3.38;;;;;;;10.95;100.00;101422.28;5272062;28;21123;-76
2023/12/27 11:28:25;;;;;;;9.27;4.03;;;;;;;10.84;100.00;101415.31;5272739;27;20059;-76
2023/12/27 11:30:56;;;;;;;14.90;3.42;;;;;;;10.97;100.00;101420.28;5271898;28;20529;-76